createdAt,value
2018-06-27T00:00:22.702Z,48.32
2018-06-27T00:01:32.435Z,48.32
2018-06-27T00:02:42.361Z,48.52
2018-06-27T00:03:51.509Z,48.81
2018-06-27T00:05:00.695Z,48.71
2018-06-27T00:06:09.600Z,48.71
2018-06-27T00:07:19.333Z,48.52
2018-06-27T00:08:28.771Z,48.61
2018-06-27T00:09:38.186Z,48.71
2018-06-27T00:10:47.095Z,48.61
2018-06-27T00:11:56.509Z,48.61
2018-06-27T00:13:06.017Z,48.61
2018-06-27T00:14:15.179Z,48.61
2018-06-27T00:15:24.336Z,48.69
2018-06-27T00:16:33.494Z,48.71
2018-06-27T00:17:42.412Z,48.61
2018-06-27T00:18:51.565Z,48.61
2018-06-27T00:20:00.987Z,48.61
2018-06-27T00:21:09.890Z,48.61
2018-06-27T00:22:19.050Z,48.71
2018-06-27T00:23:28.730Z,48.71
2018-06-27T00:24:38.416Z,48.61
2018-06-27T00:25:47.562Z,48.61
2018-06-27T00:26:56.717Z,48.52
2018-06-27T00:28:06.472Z,48.71
2018-06-27T00:29:16.154Z,48.61
2018-06-27T00:30:25.053Z,48.61
2018-06-27T00:31:34.980Z,48.61
2018-06-27T00:32:44.140Z,48.52
2018-06-27T00:33:53.738Z,48.61
2018-06-27T00:35:03.658Z,48.61
2018-06-27T00:36:13.064Z,48.61
2018-06-27T00:37:22.484Z,48.71
2018-06-27T00:38:32.147Z,48.61
2018-06-27T00:39:42.083Z,48.52
2018-06-27T00:40:51.766Z,48.61
2018-06-27T00:42:01.707Z,48.61
2018-06-27T00:43:11.111Z,48.42
2018-06-27T00:44:20.541Z,48.52
2018-06-27T00:45:30.271Z,48.71
2018-06-27T00:46:39.960Z,48.42
2018-06-27T00:47:49.626Z,48.61
2018-06-27T00:48:58.788Z,48.52
2018-06-27T00:50:08.496Z,48.32
2018-06-27T00:51:18.190Z,48.52
2018-06-27T00:52:27.864Z,48.42
2018-06-27T00:53:37.014Z,48.61
2018-06-27T00:54:46.934Z,48.42
2018-06-27T00:55:56.349Z,48.42
2018-06-27T00:57:05.499Z,48.42
2018-06-27T00:58:15.204Z,48.52
2018-06-27T00:59:24.368Z,48.52
2018-06-27T01:00:34.021Z,48.71
2018-06-27T01:01:43.183Z,48.52
2018-06-27T01:02:52.343Z,48.61
2018-06-27T01:04:01.768Z,48.42
2018-06-27T01:05:11.424Z,48.23
2018-06-27T01:06:21.098Z,48.42
2018-06-27T01:07:30.762Z,48.52
2018-06-27T01:08:39.650Z,48.42
2018-06-27T01:09:49.066Z,48.42
2018-06-27T01:10:58.987Z,48.71
2018-06-27T01:12:08.647Z,48.42
2018-06-27T01:13:18.086Z,48.32
2018-06-27T01:14:26.723Z,48.32
2018-06-27T01:15:35.987Z,48.3
2018-06-27T01:16:44.906Z,48.42
2018-06-27T01:17:54.346Z,48.3
2018-06-27T01:19:03.759Z,48.32
2018-06-27T01:20:13.598Z,48.42
2018-06-27T01:21:23.289Z,48.39
2018-06-27T01:22:32.446Z,48.61
2018-06-27T01:23:41.870Z,48.59
2018-06-27T01:24:51.556Z,48.42
2018-06-27T01:26:01.237Z,48.42
2018-06-27T01:27:10.131Z,48.61
2018-06-27T01:28:19.530Z,48.59
2018-06-27T01:29:29.214Z,48.3
2018-06-27T01:30:38.636Z,48.52
2018-06-27T01:31:48.314Z,48.61
2018-06-27T01:32:57.737Z,48.39
2018-06-27T01:34:07.164Z,48.42
2018-06-27T01:35:16.575Z,48.3
2018-06-27T01:36:25.976Z,48.32
2018-06-27T01:37:35.395Z,48.39
2018-06-27T01:38:45.098Z,48.39
2018-06-27T01:39:54.550Z,48.42
2018-06-27T01:41:04.230Z,48.32
2018-06-27T01:42:14.160Z,48.49
2018-06-27T01:43:23.065Z,48.52
2018-06-27T01:44:32.737Z,48.59
2018-06-27T01:45:42.399Z,48.59
2018-06-27T01:46:52.055Z,48.61
2018-06-27T01:48:01.457Z,48.52
2018-06-27T01:49:10.886Z,48.32
2018-06-27T01:50:20.310Z,48.3
2018-06-27T01:51:30.237Z,48.39
2018-06-27T01:52:39.661Z,48.3
2018-06-27T01:53:49.335Z,48.42
2018-06-27T01:54:58.747Z,48.42
2018-06-27T01:56:08.165Z,48.39
2018-06-27T01:57:17.844Z,48.59
2018-06-27T01:58:27.541Z,48.39
2018-06-27T01:59:36.958Z,48.39
2018-06-27T02:00:46.369Z,48.59
2018-06-27T02:01:56.058Z,48.42
2018-06-27T02:03:05.468Z,48.59
2018-06-27T02:04:14.627Z,48.52
2018-06-27T02:05:24.036Z,48.3
2018-06-27T02:06:33.451Z,48.49
2018-06-27T02:07:42.606Z,48.69
2018-06-27T02:08:51.758Z,48.52
2018-06-27T02:10:00.910Z,48.49
2018-06-27T02:11:09.557Z,48.32
2018-06-27T02:12:18.972Z,48.3
2018-06-27T02:13:28.375Z,48.3
2018-06-27T02:14:37.790Z,48.39
2018-06-27T02:15:47.467Z,48.39
2018-06-27T02:16:57.129Z,48.49
2018-06-27T02:18:06.023Z,48.39
2018-06-27T02:19:15.443Z,48.39
2018-06-27T02:20:24.595Z,48.39
2018-06-27T02:21:34.285Z,48.39
2018-06-27T02:22:43.195Z,48.39
2018-06-27T02:23:52.343Z,48.49
2018-06-27T02:25:01.238Z,48.39
2018-06-27T02:26:10.389Z,48.49
2018-06-27T02:27:19.844Z,48.3
2018-06-27T02:28:29.419Z,48.69
2018-06-27T02:29:38.840Z,48.42
2018-06-27T02:30:47.753Z,48.39
2018-06-27T02:31:57.168Z,48.39
2018-06-27T02:33:06.330Z,48.3
2018-06-27T02:34:15.499Z,48.49
2018-06-27T02:35:24.918Z,48.42
2018-06-27T02:36:34.648Z,48.3
2018-06-27T02:37:43.505Z,48.3
2018-06-27T02:38:53.174Z,48.39
2018-06-27T02:40:02.853Z,48.52
2018-06-27T02:41:12.007Z,48.59
2018-06-27T02:42:21.434Z,48.59
2018-06-27T02:43:30.585Z,48.59
2018-06-27T02:44:39.997Z,48.49
2018-06-27T02:45:49.435Z,48.3
2018-06-27T02:46:59.095Z,48.49
2018-06-27T02:48:08.492Z,48.49
2018-06-27T02:49:18.163Z,48.3
2018-06-27T02:50:27.852Z,48.49
2018-06-27T02:51:37.002Z,48.49
2018-06-27T02:52:46.424Z,48.49
2018-06-27T02:53:55.915Z,48.3
2018-06-27T02:55:05.057Z,48.3
2018-06-27T02:56:15.046Z,48.49
2018-06-27T02:57:24.194Z,48.3
2018-06-27T02:58:33.351Z,48.39
2018-06-27T02:59:42.766Z,48.49
2018-06-27T03:00:51.914Z,48.59
2018-06-27T03:02:01.493Z,48.3
2018-06-27T03:03:11.413Z,48.3
2018-06-27T03:04:20.580Z,48.59
2018-06-27T03:05:30.279Z,48.39
2018-06-27T03:06:39.973Z,48.39
2018-06-27T03:07:49.403Z,48.49
2018-06-27T03:08:59.159Z,48.39
2018-06-27T03:10:08.583Z,48.49
2018-06-27T03:11:18.264Z,48.49
2018-06-27T03:12:27.676Z,48.49
2018-06-27T03:13:37.108Z,48.49
2018-06-27T03:14:46.786Z,48.3
2018-06-27T03:15:56.471Z,48.39
2018-06-27T03:17:05.646Z,48.49
2018-06-27T03:18:15.338Z,48.39
2018-06-27T03:19:24.752Z,48.3
2018-06-27T03:20:33.653Z,48.3
2018-06-27T03:21:42.551Z,48.49
2018-06-27T03:22:52.501Z,48.49
2018-06-27T03:24:01.675Z,48.59
2018-06-27T03:25:11.342Z,48.59
2018-06-27T03:26:20.243Z,48.49
2018-06-27T03:27:29.402Z,48.49
2018-06-27T03:28:38.816Z,48.3
2018-06-27T03:29:48.232Z,48.49
2018-06-27T03:30:57.657Z,48.59
2018-06-27T03:32:07.621Z,48.39
2018-06-27T03:33:17.019Z,48.3
2018-06-27T03:34:26.430Z,48.59
2018-06-27T03:35:35.361Z,48.59
2018-06-27T03:36:45.035Z,48.3
2018-06-27T03:37:54.206Z,48.39
2018-06-27T03:39:03.912Z,48.39
2018-06-27T03:40:13.324Z,48.49
2018-06-27T03:41:23.261Z,48.49
2018-06-27T03:42:32.663Z,48.49
2018-06-27T03:43:41.827Z,48.49
2018-06-27T03:44:51.000Z,48.3
2018-06-27T03:46:00.423Z,48.3
2018-06-27T03:47:09.859Z,48.49
2018-06-27T03:48:19.021Z,48.49
2018-06-27T03:49:27.926Z,48.59
2018-06-27T03:50:37.404Z,48.59
2018-06-27T03:51:46.300Z,48.3
2018-06-27T03:52:55.188Z,48.49
2018-06-27T03:54:04.438Z,48.49
2018-06-27T03:55:13.863Z,48.49
2018-06-27T03:56:23.027Z,48.39
2018-06-27T03:57:32.172Z,48.59
2018-06-27T03:58:41.584Z,48.3
2018-06-27T03:59:51.501Z,48.49
2018-06-27T04:01:00.667Z,48.39
2018-06-27T04:02:10.394Z,48.59
2018-06-27T04:03:19.065Z,48.49
2018-06-27T04:04:27.981Z,48.21
2018-06-27T04:05:37.411Z,48.59
2018-06-27T04:06:46.816Z,48.59
2018-06-27T04:07:56.547Z,48.21
2018-06-27T04:09:06.224Z,48.39
2018-06-27T04:10:15.122Z,48.3
2018-06-27T04:11:24.272Z,48.49
2018-06-27T04:12:34.082Z,48.49
2018-06-27T04:13:43.429Z,48.3
2018-06-27T04:14:53.098Z,48.49
2018-06-27T04:16:02.260Z,48.49
2018-06-27T04:17:11.668Z,48.59
2018-06-27T04:18:21.108Z,48.39
2018-06-27T04:19:30.258Z,48.39
2018-06-27T04:20:39.678Z,48.49
2018-06-27T04:21:48.829Z,48.49
2018-06-27T04:22:58.506Z,48.49
2018-06-27T04:24:07.414Z,48.39
2018-06-27T04:25:16.575Z,48.49
2018-06-27T04:26:25.731Z,48.49
2018-06-27T04:27:35.680Z,48.49
2018-06-27T04:28:45.096Z,48.59
2018-06-27T04:29:54.251Z,48.49
2018-06-27T04:31:03.398Z,48.39
2018-06-27T04:32:12.846Z,48.3
2018-06-27T04:33:21.761Z,48.3
2018-06-27T04:34:30.713Z,48.3
2018-06-27T04:35:40.126Z,48.49
2018-06-27T04:36:49.100Z,48.49
2018-06-27T04:37:58.775Z,48.49
2018-06-27T04:39:08.498Z,48.39
2018-06-27T04:40:17.908Z,48.39
2018-06-27T04:41:27.574Z,48.49
2018-06-27T04:42:37.238Z,48.59
2018-06-27T04:43:46.912Z,48.59
2018-06-27T04:44:56.342Z,48.49
2018-06-27T04:46:05.524Z,48.49
2018-06-27T04:47:14.690Z,48.59
2018-06-27T04:48:24.095Z,48.21
2018-06-27T04:49:33.620Z,48.39
2018-06-27T04:50:43.437Z,48.39
2018-06-27T04:51:52.952Z,48.49
2018-06-27T04:53:02.636Z,48.39
2018-06-27T04:54:11.797Z,48.49
2018-06-27T04:55:21.228Z,48.39
2018-06-27T04:56:30.382Z,48.49
2018-06-27T04:57:39.791Z,48.49
2018-06-27T04:58:49.212Z,48.49
2018-06-27T04:59:58.402Z,48.39
2018-06-27T05:01:07.577Z,48.49
2018-06-27T05:02:16.981Z,48.49
2018-06-27T05:03:25.878Z,48.11
2018-06-27T05:04:35.550Z,48.49
2018-06-27T05:05:44.946Z,48.39
2018-06-27T05:06:54.657Z,48.49
2018-06-27T05:08:04.355Z,48.49
2018-06-27T05:09:13.771Z,48.39
2018-06-27T05:10:23.458Z,48.49
2018-06-27T05:11:32.925Z,48.49
2018-06-27T05:12:42.738Z,48.39
2018-06-27T05:13:52.408Z,48.49
2018-06-27T05:15:02.320Z,48.49
2018-06-27T05:16:11.466Z,48.49
2018-06-27T05:17:20.633Z,48.11
2018-06-27T05:18:30.060Z,48.3
2018-06-27T05:19:39.215Z,48.11
2018-06-27T05:20:48.669Z,48.11
2018-06-27T05:21:57.970Z,48.21
2018-06-27T05:23:07.907Z,48.3
2018-06-27T05:24:16.807Z,48.39
2018-06-27T05:25:26.218Z,48.3
2018-06-27T05:26:35.369Z,48.39
2018-06-27T05:27:45.246Z,48.49
2018-06-27T05:28:54.402Z,48.49
2018-06-27T05:30:03.839Z,48.39
2018-06-27T05:31:13.000Z,48.49
2018-06-27T05:32:22.155Z,48.59
2018-06-27T05:33:31.100Z,48.59
2018-06-27T05:34:40.511Z,48.49
2018-06-27T05:35:49.671Z,48.39
2018-06-27T05:36:58.600Z,48.39
2018-06-27T05:38:07.551Z,48.39
2018-06-27T05:39:17.205Z,48.69
2018-06-27T05:40:26.096Z,48.59
2018-06-27T05:41:35.768Z,48.59
2018-06-27T05:42:45.187Z,48.69
2018-06-27T05:43:54.835Z,48.49
2018-06-27T05:45:04.004Z,48.69
2018-06-27T05:46:13.660Z,48.69
2018-06-27T05:47:22.878Z,48.59
2018-06-27T05:48:32.288Z,48.69
2018-06-27T05:49:41.955Z,48.3
2018-06-27T05:50:51.379Z,48.39
2018-06-27T05:52:01.061Z,48.59
2018-06-27T05:53:10.744Z,48.69
2018-06-27T05:54:20.148Z,48.39
2018-06-27T05:55:29.570Z,48.39
2018-06-27T05:56:39.002Z,48.49
2018-06-27T05:57:48.409Z,48.3
2018-06-27T05:58:58.101Z,48.39
2018-06-27T06:00:07.262Z,48.49
2018-06-27T06:01:16.411Z,48.3
2018-06-27T06:02:25.827Z,48.3
2018-06-27T06:03:35.251Z,48.59
2018-06-27T06:04:43.888Z,48.69
2018-06-27T06:05:53.317Z,48.3
2018-06-27T06:07:02.744Z,48.59
2018-06-27T06:08:12.418Z,48.59
2018-06-27T06:09:21.834Z,48.59
2018-06-27T06:10:31.230Z,48.69
2018-06-27T06:11:40.895Z,48.49
2018-06-27T06:12:50.660Z,48.59
2018-06-27T06:14:00.383Z,48.59
2018-06-27T06:15:09.548Z,48.39
2018-06-27T06:16:19.477Z,48.39
2018-06-27T06:17:28.879Z,48.49
2018-06-27T06:18:38.547Z,48.39
2018-06-27T06:19:47.846Z,48.39
2018-06-27T06:20:57.343Z,48.69
2018-06-27T06:22:06.507Z,48.69
2018-06-27T06:23:15.915Z,48.69
2018-06-27T06:24:25.076Z,48.49
2018-06-27T06:25:34.473Z,48.59
2018-06-27T06:26:43.882Z,48.59
2018-06-27T06:27:53.555Z,48.59
2018-06-27T06:29:02.718Z,48.59
2018-06-27T06:30:11.878Z,48.69
2018-06-27T06:31:21.294Z,48.59
2018-06-27T06:32:31.081Z,48.59
2018-06-27T06:33:41.085Z,48.59
2018-06-27T06:34:49.728Z,48.59
2018-06-27T06:35:58.893Z,48.59
2018-06-27T06:37:08.112Z,48.69
2018-06-27T06:38:17.534Z,48.69
2018-06-27T06:39:26.951Z,48.3
2018-06-27T06:40:35.873Z,48.49
2018-06-27T06:41:45.953Z,48.88
2018-06-27T06:42:55.634Z,48.39
2018-06-27T06:44:05.621Z,48.3
2018-06-27T06:45:14.516Z,48.69
2018-06-27T06:46:24.441Z,48.88
2018-06-27T06:47:33.917Z,48.49
2018-06-27T06:48:43.332Z,48.88
2018-06-27T06:49:52.730Z,48.42
2018-06-27T06:51:01.896Z,48.49
2018-06-27T06:52:11.420Z,48.39
2018-06-27T06:53:20.979Z,48.49
2018-06-27T06:54:30.152Z,48.97
2018-06-27T06:55:39.571Z,48.49
2018-06-27T06:56:49.479Z,48.79
2018-06-27T06:57:59.145Z,48.59
2018-06-27T06:59:08.559Z,48.69
2018-06-27T07:00:17.762Z,48.69
2018-06-27T07:01:27.441Z,48.79
2018-06-27T07:02:37.363Z,48.49
2018-06-27T07:03:46.526Z,48.81
2018-06-27T07:04:55.728Z,48.88
2018-06-27T07:06:05.715Z,48.69
2018-06-27T07:07:15.112Z,48.79
2018-06-27T07:08:24.274Z,48.69
2018-06-27T07:09:33.698Z,48.61
2018-06-27T07:10:43.416Z,48.59
2018-06-27T07:11:53.108Z,48.69
2018-06-27T07:13:02.523Z,48.59
2018-06-27T07:14:12.246Z,48.49
2018-06-27T07:15:21.388Z,48.71
2018-06-27T07:16:30.572Z,48.59
2018-06-27T07:17:39.463Z,48.71
2018-06-27T07:18:48.927Z,48.71
2018-06-27T07:19:58.602Z,48.69
2018-06-27T07:21:08.272Z,48.71
2018-06-27T07:22:17.442Z,48.59
2018-06-27T07:23:26.582Z,48.71
2018-06-27T07:24:35.996Z,48.52
2018-06-27T07:25:45.674Z,48.69
2018-06-27T07:26:55.798Z,48.71
2018-06-27T07:28:05.475Z,48.69
2018-06-27T07:29:14.877Z,48.69
2018-06-27T07:30:24.277Z,48.71
2018-06-27T07:31:33.935Z,48.69
2018-06-27T07:32:43.342Z,48.59
2018-06-27T07:33:53.011Z,48.59
2018-06-27T07:35:02.433Z,48.69
2018-06-27T07:36:12.115Z,48.59
2018-06-27T07:37:21.792Z,48.71
2018-06-27T07:38:31.478Z,48.71
2018-06-27T07:39:41.141Z,48.69
2018-06-27T07:40:50.805Z,48.71
2018-06-27T07:42:00.730Z,48.71
2018-06-27T07:43:10.163Z,48.59
2018-06-27T07:44:19.055Z,48.71
2018-06-27T07:45:29.115Z,48.71
2018-06-27T07:46:38.546Z,48.71
2018-06-27T07:47:48.155Z,48.71
2018-06-27T07:48:57.812Z,48.52
2018-06-27T07:50:07.268Z,48.49
2018-06-27T07:51:16.691Z,48.52
2018-06-27T07:52:26.366Z,48.71
2018-06-27T07:53:36.287Z,48.81
2018-06-27T07:54:45.705Z,48.61
2018-06-27T07:55:55.368Z,48.52
2018-06-27T07:57:05.075Z,48.61
2018-06-27T07:58:13.722Z,48.52
2018-06-27T07:59:23.414Z,48.61
2018-06-27T08:00:32.057Z,48.71
2018-06-27T08:01:41.735Z,48.69
2018-06-27T08:02:51.388Z,48.61
2018-06-27T08:04:00.805Z,48.59
2018-06-27T08:05:09.692Z,48.81
2018-06-27T08:06:19.110Z,48.61
2018-06-27T08:07:28.782Z,48.61
2018-06-27T08:08:38.703Z,48.71
2018-06-27T08:09:48.111Z,48.61
2018-06-27T08:10:58.035Z,48.71
2018-06-27T08:12:07.212Z,48.59
2018-06-27T08:13:16.957Z,48.79
2018-06-27T08:14:26.615Z,48.71
2018-06-27T08:15:36.290Z,48.61
2018-06-27T08:16:45.708Z,48.59
2018-06-27T08:17:55.586Z,48.69
2018-06-27T08:19:05.881Z,48.71
2018-06-27T08:20:15.466Z,48.59
2018-06-27T08:21:24.880Z,48.71
2018-06-27T08:22:34.830Z,48.61
2018-06-27T08:23:44.755Z,48.71
2018-06-27T08:24:54.180Z,48.61
2018-06-27T08:26:03.793Z,48.61
2018-06-27T08:27:13.627Z,48.71
2018-06-27T08:28:23.290Z,48.61
2018-06-27T08:29:32.976Z,48.59
2018-06-27T08:30:42.395Z,48.61
2018-06-27T08:31:52.060Z,48.71
2018-06-27T08:33:02.419Z,48.71
2018-06-27T08:34:11.579Z,48.71
2018-06-27T08:35:20.982Z,48.61
2018-06-27T08:36:30.652Z,48.71
2018-06-27T08:37:40.088Z,48.71
2018-06-27T08:38:50.020Z,48.81
2018-06-27T08:40:00.355Z,48.52
2018-06-27T08:41:10.022Z,48.81
2018-06-27T08:42:19.189Z,48.71
2018-06-27T08:43:28.081Z,48.71
2018-06-27T08:44:37.787Z,48.59
2018-06-27T08:45:47.712Z,48.61
2018-06-27T08:46:57.381Z,48.61
2018-06-27T08:48:07.053Z,48.71
2018-06-27T08:49:16.467Z,48.71
2018-06-27T08:50:25.871Z,48.61
2018-06-27T08:51:35.792Z,48.71
2018-06-27T08:52:45.470Z,48.71
2018-06-27T08:53:54.901Z,48.61
2018-06-27T08:55:03.818Z,48.71
2018-06-27T08:56:13.739Z,48.61
2018-06-27T08:57:23.411Z,48.71
2018-06-27T08:58:33.077Z,48.71
2018-06-27T08:59:42.536Z,48.71
2018-06-27T09:00:51.952Z,48.81
2018-06-27T09:02:01.353Z,48.81
2018-06-27T09:03:10.755Z,48.61
2018-06-27T09:04:19.899Z,48.71
2018-06-27T09:05:29.560Z,48.71
2018-06-27T09:06:38.704Z,48.71
2018-06-27T09:07:48.531Z,48.61
2018-06-27T09:08:58.145Z,48.81
2018-06-27T09:10:07.659Z,48.71
2018-06-27T09:11:16.803Z,48.71
2018-06-27T09:12:26.203Z,48.71
2018-06-27T09:13:35.607Z,48.71
2018-06-27T09:14:45.877Z,48.61
2018-06-27T09:15:55.043Z,48.71
2018-06-27T09:17:04.197Z,48.32
2018-06-27T09:18:13.927Z,48.71
2018-06-27T09:19:23.346Z,48.61
2018-06-27T09:20:32.761Z,48.52
2018-06-27T09:21:41.965Z,48.61
2018-06-27T09:22:50.924Z,48.32
2018-06-27T09:24:00.334Z,48.81
2018-06-27T09:25:10.319Z,48.71
2018-06-27T09:26:20.244Z,48.61
2018-06-27T09:27:29.663Z,48.61
2018-06-27T09:28:39.333Z,48.42
2018-06-27T09:29:49.012Z,48.32
2018-06-27T09:30:58.965Z,48.71
2018-06-27T09:32:08.418Z,48.42
2018-06-27T09:33:17.573Z,48.52
2018-06-27T09:34:26.730Z,48.61
2018-06-27T09:35:36.138Z,48.81
2018-06-27T09:36:46.087Z,48.81
2018-06-27T09:37:55.247Z,48.32
2018-06-27T09:39:04.659Z,48.52
2018-06-27T09:40:14.079Z,48.42
2018-06-27T09:41:23.479Z,48.52
2018-06-27T09:42:32.644Z,48.61
2018-06-27T09:43:42.581Z,48.61
2018-06-27T09:44:52.247Z,48.52
2018-06-27T09:46:01.649Z,48.52
2018-06-27T09:47:11.055Z,48.61
2018-06-27T09:48:20.707Z,48.52
2018-06-27T09:49:30.123Z,48.42
2018-06-27T09:50:39.523Z,48.61
2018-06-27T09:51:49.198Z,48.32
2018-06-27T09:52:59.110Z,48.52
2018-06-27T09:54:08.792Z,48.3
2018-06-27T09:55:17.965Z,48.52
2018-06-27T09:56:27.377Z,48.52
2018-06-27T09:57:36.792Z,48.52
2018-06-27T09:58:46.196Z,48.52
2018-06-27T09:59:55.378Z,48.52
2018-06-27T10:01:05.104Z,48.71
2018-06-27T10:02:14.766Z,48.42
2018-06-27T10:03:24.462Z,48.52
2018-06-27T10:04:34.133Z,48.52
2018-06-27T10:05:44.073Z,48.52
2018-06-27T10:06:54.005Z,48.61
2018-06-27T10:08:03.664Z,48.52
2018-06-27T10:09:13.092Z,48.61
2018-06-27T10:10:23.016Z,48.52
2018-06-27T10:11:32.183Z,48.52
2018-06-27T10:12:41.855Z,48.52
2018-06-27T10:13:51.005Z,48.52
2018-06-27T10:15:00.155Z,48.52
2018-06-27T10:16:09.785Z,48.52
2018-06-27T10:17:19.105Z,48.52
2018-06-27T10:18:29.034Z,48.61
2018-06-27T10:19:38.711Z,48.52
2018-06-27T10:20:48.388Z,48.61
2018-06-27T10:21:58.045Z,48.49
2018-06-27T10:23:07.214Z,48.52
2018-06-27T10:24:16.626Z,48.52
2018-06-27T10:25:25.525Z,48.52
2018-06-27T10:26:35.194Z,48.52
2018-06-27T10:27:44.868Z,48.61
2018-06-27T10:28:54.529Z,48.61
2018-06-27T10:30:03.930Z,48.61
2018-06-27T10:31:13.345Z,48.71
2018-06-27T10:32:23.003Z,48.52
2018-06-27T10:33:32.931Z,48.52
2018-06-27T10:34:42.602Z,48.52
2018-06-27T10:35:52.113Z,48.61
2018-06-27T10:37:01.792Z,48.52
2018-06-27T10:38:11.456Z,48.81
2018-06-27T10:39:20.911Z,48.52
2018-06-27T10:40:30.558Z,48.52
2018-06-27T10:41:39.714Z,48.52
2018-06-27T10:42:49.184Z,48.81
2018-06-27T10:43:58.654Z,48.42
2018-06-27T10:45:08.064Z,48.52
2018-06-27T10:46:17.220Z,48.52
2018-06-27T10:47:27.153Z,48.81
2018-06-27T10:48:36.819Z,48.81
2018-06-27T10:49:45.965Z,48.52
2018-06-27T10:50:55.384Z,48.52
2018-06-27T10:52:04.799Z,48.61
2018-06-27T10:53:14.218Z,48.52
2018-06-27T10:54:23.900Z,48.61
2018-06-27T10:55:33.075Z,48.52
2018-06-27T10:56:42.755Z,48.42
2018-06-27T10:57:52.453Z,48.32
2018-06-27T10:59:02.421Z,48.61
2018-06-27T11:00:12.354Z,48.71
2018-06-27T11:01:22.295Z,48.61
2018-06-27T11:02:31.180Z,48.61
2018-06-27T11:03:40.608Z,48.71
2018-06-27T11:04:50.042Z,48.42
2018-06-27T11:05:59.964Z,48.81
2018-06-27T11:07:09.111Z,48.71
2018-06-27T11:08:18.269Z,48.61
2018-06-27T11:09:27.962Z,48.32
2018-06-27T11:10:37.898Z,48.52
2018-06-27T11:11:47.586Z,48.52
2018-06-27T11:12:57.272Z,48.81
2018-06-27T11:14:07.344Z,48.71
2018-06-27T11:15:16.698Z,48.52
2018-06-27T11:16:25.945Z,48.81
2018-06-27T11:17:35.603Z,48.71
2018-06-27T11:18:45.276Z,48.71
2018-06-27T11:19:54.691Z,48.61
2018-06-27T11:21:04.110Z,48.71
2018-06-27T11:22:13.542Z,48.71
2018-06-27T11:23:23.226Z,48.71
2018-06-27T11:24:32.724Z,48.61
2018-06-27T11:25:42.437Z,48.71
2018-06-27T11:26:52.244Z,48.52
2018-06-27T11:28:02.064Z,48.81
2018-06-27T11:29:11.750Z,48.71
2018-06-27T11:30:20.668Z,48.71
2018-06-27T11:31:30.634Z,48.61
2018-06-27T11:32:40.365Z,48.61
2018-06-27T11:33:50.632Z,48.71
2018-06-27T11:35:00.316Z,48.71
2018-06-27T11:36:09.746Z,48.71
2018-06-27T11:37:19.193Z,48.71
2018-06-27T11:38:29.166Z,48.71
2018-06-27T11:39:39.321Z,48.71
2018-06-27T11:40:48.785Z,48.71
2018-06-27T11:41:58.477Z,48.71
2018-06-27T11:43:08.185Z,48.71
2018-06-27T11:44:17.800Z,48.71
2018-06-27T11:45:27.266Z,48.71
2018-06-27T11:46:36.744Z,48.71
2018-06-27T11:47:46.417Z,48.61
2018-06-27T11:48:56.095Z,48.71
2018-06-27T11:50:05.837Z,48.71
2018-06-27T11:51:15.550Z,48.61
2018-06-27T11:52:24.708Z,48.61
2018-06-27T11:53:34.392Z,48.71
2018-06-27T11:54:44.088Z,48.71
2018-06-27T11:55:54.028Z,48.71
2018-06-27T11:57:03.808Z,48.61
2018-06-27T11:58:13.257Z,48.71
2018-06-27T11:59:22.936Z,48.71
2018-06-27T12:00:32.587Z,48.71
2018-06-27T12:01:42.033Z,48.61
2018-06-27T12:02:51.708Z,48.71
2018-06-27T12:04:01.158Z,48.71
2018-06-27T12:05:11.120Z,48.71
2018-06-27T12:06:20.810Z,48.61
2018-06-27T12:07:30.501Z,48.71
2018-06-27T12:08:39.704Z,48.71
2018-06-27T12:09:49.186Z,48.71
2018-06-27T12:10:58.616Z,48.71
2018-06-27T12:12:08.049Z,48.61
2018-06-27T12:13:17.498Z,48.61
2018-06-27T12:14:27.206Z,48.61
2018-06-27T12:15:35.838Z,48.61
2018-06-27T12:16:45.013Z,48.71
2018-06-27T12:17:55.128Z,48.61
2018-06-27T12:19:05.077Z,48.71
2018-06-27T12:20:14.613Z,48.71
2018-06-27T12:21:23.793Z,48.71
2018-06-27T12:22:32.684Z,48.71
2018-06-27T12:23:42.338Z,48.52
2018-06-27T12:24:51.763Z,48.71
2018-06-27T12:26:00.927Z,48.61
2018-06-27T12:27:10.348Z,48.71
2018-06-27T12:28:19.508Z,48.81
2018-06-27T12:29:28.917Z,48.61
2018-06-27T12:30:38.837Z,48.61
2018-06-27T12:31:48.780Z,48.52
2018-06-27T12:32:58.457Z,48.71
2018-06-27T12:34:08.148Z,48.71
2018-06-27T12:35:17.823Z,48.61
2018-06-27T12:36:26.972Z,48.61
2018-06-27T12:37:36.652Z,48.71
2018-06-27T12:38:46.307Z,48.52
2018-06-27T12:39:55.816Z,48.71
2018-06-27T12:41:05.217Z,48.52
2018-06-27T12:42:14.624Z,48.52
2018-06-27T12:43:24.043Z,48.52
2018-06-27T12:44:33.451Z,48.52
2018-06-27T12:45:42.593Z,48.52
2018-06-27T12:46:52.536Z,48.71
2018-06-27T12:48:01.423Z,48.71
2018-06-27T12:49:10.871Z,48.61
2018-06-27T12:50:20.808Z,48.71
2018-06-27T12:51:30.637Z,48.71
2018-06-27T12:52:40.055Z,48.61
2018-06-27T12:53:49.213Z,48.61
2018-06-27T12:54:58.896Z,48.71
2018-06-27T12:56:08.817Z,48.71
2018-06-27T12:57:17.972Z,48.71
2018-06-27T12:58:27.404Z,48.52
2018-06-27T12:59:37.058Z,48.52
2018-06-27T13:00:46.927Z,48.71
2018-06-27T13:01:56.357Z,48.81
2018-06-27T13:03:06.283Z,48.81
2018-06-27T13:04:15.175Z,48.52
2018-06-27T13:05:24.842Z,48.9
2018-06-27T13:06:34.254Z,48.52
2018-06-27T13:07:43.674Z,48.9
2018-06-27T13:08:53.887Z,48.52
2018-06-27T13:10:03.225Z,48.42
2018-06-27T13:11:12.895Z,48.42
2018-06-27T13:12:22.315Z,48.42
2018-06-27T13:13:32.263Z,48.52
2018-06-27T13:14:41.661Z,48.32
2018-06-27T13:15:51.284Z,48.52
2018-06-27T13:17:00.864Z,48.71
2018-06-27T13:18:10.285Z,48.71
2018-06-27T13:19:19.970Z,48.71
2018-06-27T13:20:29.115Z,48.61
2018-06-27T13:21:38.562Z,48.61
2018-06-27T13:22:47.724Z,48.71
2018-06-27T13:23:57.163Z,48.61
2018-06-27T13:25:07.195Z,48.61
2018-06-27T13:26:16.105Z,48.61
2018-06-27T13:27:26.189Z,48.61
2018-06-27T13:28:35.077Z,48.52
2018-06-27T13:29:44.225Z,48.52
2018-06-27T13:30:53.892Z,48.52
2018-06-27T13:32:02.794Z,48.42
2018-06-27T13:33:12.201Z,48.71
2018-06-27T13:34:21.623Z,48.42
2018-06-27T13:35:31.310Z,48.61
2018-06-27T13:36:40.454Z,48.52
2018-06-27T13:37:49.871Z,47.94
2018-06-27T13:38:59.566Z,48.52
2018-06-27T13:40:09.504Z,48.52
2018-06-27T13:41:18.912Z,48.42
2018-06-27T13:42:28.603Z,48.42
2018-06-27T13:43:38.277Z,48.52
2018-06-27T13:44:47.963Z,47.84
2018-06-27T13:45:57.628Z,48.16
2018-06-27T13:47:07.067Z,48.13
2018-06-27T13:48:16.500Z,48.25
2018-06-27T13:49:26.165Z,48.13
2018-06-27T13:50:35.845Z,48.06
2018-06-27T13:51:45.505Z,48.25
2018-06-27T13:52:54.921Z,48.42
2018-06-27T13:54:03.816Z,48.25
2018-06-27T13:55:13.493Z,48.25
2018-06-27T13:56:23.187Z,48.25
2018-06-27T13:57:32.872Z,48.35
2018-06-27T13:58:42.556Z,48.25
2018-06-27T13:59:52.481Z,48.35
2018-06-27T14:01:01.902Z,48.35
2018-06-27T14:02:11.369Z,48.16
2018-06-27T14:03:20.535Z,48.54
2018-06-27T14:04:30.235Z,48.35
2018-06-27T14:05:39.657Z,48.54
2018-06-27T14:06:49.087Z,48.44
2018-06-27T14:07:58.746Z,48.16
2018-06-27T14:09:08.686Z,48.54
2018-06-27T14:10:17.854Z,48.06
2018-06-27T14:11:27.544Z,48.06
2018-06-27T14:12:37.480Z,47.77
2018-06-27T14:13:46.650Z,47.86
2018-06-27T14:14:56.353Z,47.86
2018-06-27T14:16:05.510Z,47.86
2018-06-27T14:17:15.462Z,47.77
2018-06-27T14:18:25.178Z,47.86
2018-06-27T14:19:34.842Z,47.96
2018-06-27T14:20:44.506Z,47.67
2018-06-27T14:21:54.163Z,47.96
2018-06-27T14:23:03.834Z,47.67
2018-06-27T14:24:13.246Z,47.96
2018-06-27T14:25:23.307Z,47.67
2018-06-27T14:26:32.725Z,47.67
2018-06-27T14:27:42.381Z,47.67
2018-06-27T14:28:52.051Z,47.67
2018-06-27T14:30:01.464Z,47.77
2018-06-27T14:31:10.872Z,47.58
2018-06-27T14:32:20.289Z,47.58
2018-06-27T14:33:29.689Z,47.58
2018-06-27T14:34:39.097Z,47.86
2018-06-27T14:35:49.035Z,47.96
2018-06-27T14:36:58.449Z,47.86
2018-06-27T14:38:08.119Z,47.86
2018-06-27T14:39:17.782Z,47.86
2018-06-27T14:40:27.313Z,47.67
2018-06-27T14:41:36.719Z,47.96
2018-06-27T14:42:46.379Z,47.86
2018-06-27T14:43:55.948Z,47.86
2018-06-27T14:45:05.444Z,47.58
2018-06-27T14:46:14.855Z,47.86
2018-06-27T14:47:24.274Z,47.96
2018-06-27T14:48:33.693Z,47.86
2018-06-27T14:49:43.363Z,47.86
2018-06-27T14:50:53.390Z,47.96
2018-06-27T14:52:03.162Z,47.86
2018-06-27T14:53:12.931Z,47.77
2018-06-27T14:54:22.621Z,47.86
2018-06-27T14:55:32.307Z,47.86
2018-06-27T14:56:41.978Z,47.67